This is the latest recevied weather packets stored in our database for station/object EA4HRG-10. If no packets are shown the sender has not sent any weather packets the latest 10 day(s).
| Time | Temp. | Humidity | Pressure | Rain* | Wind** | Luminosity | Snow |
|---|---|---|---|---|---|---|---|
| 1788404139 | 15.56° C | 59% | 1024.3 hPa | - | - | - | - |
| 1788403239 | 16.11° C | 60% | 1024.2 hPa | - | - | - | - |
| 1788402339 | 16.11° C | 58% | 1024.1 hPa | - | - | - | - |
| 1788401439 | 16.67° C | 58% | 1023.9 hPa | - | - | - | - |
| 1788400539 | 16.67° C | 56% | 1023.9 hPa | - | - | - | - |
| 1788399646 | 17.22° C | 53% | 1023.6 hPa | - | - | - | - |
| 1788398739 | 17.22° C | 52% | 1023.7 hPa | - | - | - | - |
| 1788397839 | 17.22° C | 54% | 1023.7 hPa | - | - | - | - |
| 1788396939 | 17.78° C | 51% | 1023.3 hPa | - | - | - | - |
| 1788396039 | 17.78° C | 51% | 1023.4 hPa | - | - | - | - |
| 1788395139 | 18.89° C | 47% | 1022.9 hPa | - | - | - | - |
| 1788394239 | - | 47% | 1024.4 hPa | - | - | - | - |
| 1788393339 | - | 100% | - | - | - | - | - |
| 1788392439 | 19.44° C | 46% | 1022.5 hPa | - | - | - | - |
| 1788391539 | 19.44° C | 46% | 1022.4 hPa | - | - | - | - |
| 1788390639 | 20° C | 45% | 1022.2 hPa | - | - | - | - |
| 1788389739 | 20° C | 44% | 1021.9 hPa | - | - | - | - |
| 1788388839 | 20.56° C | 43% | 1021.7 hPa | - | - | - | - |
| 1788387984 | 21.11° C | 41% | 1021.4 hPa | - | - | - | - |
| 1788387939 | 21.11° C | 41% | 1021.4 hPa | - | - | - | - |
| 1788387039 | 21.67° C | 40% | 1021.1 hPa | - | - | - | - |
| 1788386139 | 20.56° C | 42% | 1021.3 hPa | - | - | - | - |
| 1788385354 | 21.11° C | 41% | 1020.7 hPa | - | - | - | - |
| 1788385239 | 21.11° C | 41% | 1020.7 hPa | - | - | - | - |
| 1788384339 | 21.67° C | 39% | 1020.4 hPa | - | - | - | - |
* Rain since midnight (hover to see other rain measurements)
** Current wind speed in m/s (hover to see current wind gust speed)